Time;durP1;ratioP1;P1;durP2;ratioP2;P2;SDS_P1;SDS_P2;PMS_P1;PMS_P2;Temp;Humidity;BMP_temperature;BMP_pressure;BME280_temperature;BME280_humidity;BME280_pressure;Samples;Min_cycle;Max_cycle;Signal;HPM_P1;HPM_P2
2022/10/29 00:01:59;;;;;;;;;;;;;;;11.11;100.00;101064.34;5010170;28;19924;-78
2022/10/29 00:04:24;;;;;;;;;;;;;;;11.04;100.00;101048.53;5009694;28;19918;-79
2022/10/29 00:06:50;;;;;;;;;;;;;;;11.05;100.00;101066.78;5006974;28;19917;-79
2022/10/29 00:09:15;;;;;;;;;;;;;;;11.05;100.00;101064.00;4992810;28;19924;-79
2022/10/29 00:11:41;;;;;;;;;;;;;;;11.02;100.00;101070.38;5005650;28;19926;-79
2022/10/29 00:14:06;;;;;;;;;;;;;;;11.00;100.00;101070.00;4998263;28;20319;-79
2022/10/29 00:16:36;;;;;;;;;;;;;;;11.05;100.00;101077.09;5006435;28;19917;-79
2022/10/29 00:19:01;;;;;;;;;;;;;;;10.98;100.00;101069.66;5007411;28;19955;-79
2022/10/29 00:21:26;;;;;;;;;;;;;;;10.99;100.00;101068.44;5008404;28;19967;-79
2022/10/29 00:23:52;;;;;;;;;;;;;;;10.98;100.00;101066.09;5007260;28;20004;-79
2022/10/29 00:26:18;;;;;;;;;;;;;;;10.96;100.00;101069.25;5009262;28;19947;-79
2022/10/29 00:28:43;;;;;;;;;;;;;;;10.96;100.00;101074.06;5007960;28;19917;-79
2022/10/29 00:31:10;;;;;;;;;;;;;;;10.93;100.00;101063.75;5006826;28;19929;-79
2022/10/29 00:33:35;;;;;;;;;;;;;;;10.97;100.00;101061.72;5008995;28;20368;-78
2022/10/29 00:36:09;;;;;;;;;;;;;;;10.96;100.00;101071.28;5008254;28;19965;-79
2022/10/29 00:38:34;;;;;;;;;;;;;;;10.97;100.00;101070.84;5006596;28;19922;-79
2022/10/29 00:41:00;;;;;;;;;;;;;;;10.97;100.00;101065.28;5007588;28;19917;-78
2022/10/29 00:43:26;;;;;;;;;;;;;;;10.96;100.00;101063.72;5007541;28;19968;-79
2022/10/29 00:45:55;;;;;;;;;;;;;;;10.95;100.00;101066.91;5009948;28;19945;-79
2022/10/29 00:48:21;;;;;;;;;;;;;;;10.93;100.00;101070.09;4998294;28;20096;-79
2022/10/29 00:50:46;;;;;;;;;;;;;;;10.95;100.00;101062.16;4989799;28;20077;-79
2022/10/29 00:53:12;;;;;;;;;;;;;;;10.95;100.00;101067.72;4985971;28;20303;-79
2022/10/29 00:55:37;;;;;;;;;;;;;;;10.97;100.00;101059.75;5007925;28;19921;-79
2022/10/29 00:58:03;;;;;;;;;;;;;;;10.95;100.00;101056.59;5008920;28;19944;-79
2022/10/29 01:03:04;;;;;;;;;;;;;;;10.94;100.00;101048.69;5129316;23;20283;-77
2022/10/29 01:05:29;;;;;;;;;;;;;;;10.95;100.00;101042.72;4978917;28;19928;-79
2022/10/29 01:07:55;;;;;;;;;;;;;;;10.96;100.00;101052.59;4992579;28;19922;-79
2022/10/29 01:10:21;;;;;;;;;;;;;;;10.91;100.00;101046.75;4992214;28;19918;-79
2022/10/29 01:13:00;;;;;;;;;;;;;;;10.88;100.00;101045.56;4991041;28;19926;-79
2022/10/29 01:15:25;;;;;;;;;;;;;;;10.89;100.00;101040.81;4991610;28;20378;-79
2022/10/29 01:17:55;;;;;;;;;;;;;;;10.86;100.00;101036.88;4993057;28;19925;-79
2022/10/29 01:20:39;;;;;;;;;;;;;;;10.85;100.00;101040.84;4974955;28;19918;-79
2022/10/29 01:23:14;;;;;;;;;;;;;;;10.84;100.00;101041.28;4992165;28;19917;-79
2022/10/29 01:25:58;;;;;;;;;;;;;;;10.87;100.00;101023.78;4990450;28;19933;-79
2022/10/29 01:28:25;;;;;;;;;;;;;;;10.86;100.00;101042.44;4992890;28;19918;-78
2022/10/29 01:31:09;;;;;;;;;;;;;;;10.86;100.00;101038.88;5007380;28;19925;-78
2022/10/29 01:33:37;;;;;;;;;;;;;;;10.81;100.00;101033.75;4989267;28;19992;-78
2022/10/29 01:36:03;;;;;;;;;;;;;;;10.83;100.00;101037.72;5006682;28;19926;-78
2022/10/29 01:38:35;;;;;;;;;;;;;;;10.81;100.00;101034.56;4998308;28;20410;-78
2022/10/29 01:41:19;;;;;;;;;;;;;;;10.84;100.00;101017.06;5010527;28;19921;-79
2022/10/29 01:43:46;;;;;;;;;;;;;;;10.84;100.00;101022.63;4987088;28;19917;-78
2022/10/29 01:46:16;;;;;;;;;;;;;;;10.83;100.00;101014.72;5007772;28;19922;-78
2022/10/29 01:48:43;;;;;;;;;;;;;;;10.81;100.00;101017.91;4975548;28;19924;-78
2022/10/29 01:51:10;;;;;;;;;;;;;;;10.81;100.00;101029.00;5006971;28;19940;-78
2022/10/29 01:53:36;;;;;;;;;;;;;;;10.81;100.00;101009.56;4980413;28;19917;-78
2022/10/29 01:56:01;;;;;;;;;;;;;;;10.73;100.00;101005.31;4991687;28;19926;-78
2022/10/29 01:58:26;;;;;;;;;;;;;;;10.71;100.00;101005.75;4991400;28;19961;-78
2022/10/29 02:00:55;;;;;;;;;;;;;;;10.73;100.00;101000.56;4991664;28;19917;-78
2022/10/29 02:03:28;;;;;;;;;;;;;;;10.77;100.00;101006.06;4991279;28;19918;-78
2022/10/29 02:06:03;;;;;;;;;;;;;;;10.72;100.00;101004.53;4990695;28;19917;-78
2022/10/29 02:08:55;;;;;;;;;;;;;;;10.71;100.00;101008.53;4990902;28;19968;-78
2022/10/29 02:11:41;;;;;;;;;;;;;;;10.75;100.00;101005.69;4987517;28;19963;-78
2022/10/29 02:14:07;;;;;;;;;;;;;;;10.73;100.00;100999.75;4951378;28;19953;-78
2022/10/29 02:16:32;;;;;;;;;;;;;;;10.72;100.00;101000.94;4990438;28;19925;-78
2022/10/29 02:18:58;;;;;;;;;;;;;;;10.72;100.00;101015.63;4990131;28;19921;-78
2022/10/29 02:21:23;;;;;;;;;;;;;;;10.77;100.00;101011.59;4991517;28;19918;-78
2022/10/29 02:23:48;;;;;;;;;;;;;;;10.74;100.00;101004.91;4989743;28;20381;-78
2022/10/29 02:26:14;;;;;;;;;;;;;;;10.74;100.00;101007.69;4991069;28;19918;-78
2022/10/29 02:28:40;;;;;;;;;;;;;;;10.77;100.00;100994.94;4986017;28;20017;-78
2022/10/29 02:31:05;;;;;;;;;;;;;;;10.80;100.00;100999.66;4991602;28;19918;-79
2022/10/29 02:33:30;;;;;;;;;;;;;;;10.81;100.00;100998.47;4986828;28;20372;-78
2022/10/29 02:35:56;;;;;;;;;;;;;;;10.73;100.00;100992.22;4989553;28;19922;-79
2022/10/29 02:38:21;;;;;;;;;;;;;;;10.76;100.00;100993.38;4991827;28;19918;-79
2022/10/29 02:40:46;;;;;;;;;;;;;;;10.75;100.00;100995.38;4985487;28;19925;-78
2022/10/29 02:43:12;;;;;;;;;;;;;;;10.80;100.00;100991.34;4988378;28;19925;-78
2022/10/29 02:45:37;;;;;;;;;;;;;;;10.79;100.00;100986.22;4984833;28;19921;-78
2022/10/29 02:48:03;;;;;;;;;;;;;;;10.78;100.00;100979.88;4989580;28;19936;-79
2022/10/29 02:50:28;;;;;;;;;;;;;;;10.78;100.00;100979.88;4988816;28;20457;-79
2022/10/29 02:52:54;;;;;;;;;;;;;;;10.77;100.00;100983.84;4991064;28;19955;-79
2022/10/29 02:55:19;;;;;;;;;;;;;;;10.77;100.00;100983.84;4973298;28;19918;-78
2022/10/29 02:57:44;;;;;;;;;;;;;;;10.80;100.00;100979.47;4987939;28;19918;-78
2022/10/29 03:00:10;;;;;;;;;;;;;;;10.82;100.00;100986.19;4988802;28;19928;-78
2022/10/29 03:02:36;;;;;;;;;;;;;;;10.80;100.00;100985.03;4990998;28;20029;-79
2022/10/29 03:05:01;;;;;;;;;;;;;;;10.81;100.00;100979.03;4988606;28;19922;-78
2022/10/29 03:07:27;;;;;;;;;;;;;;;10.85;100.00;100979.78;4990775;28;19917;-78
2022/10/29 03:09:52;;;;;;;;;;;;;;;10.86;100.00;100981.38;4990993;28;19971;-78
2022/10/29 03:12:18;;;;;;;;;;;;;;;10.84;100.00;100983.75;4990826;28;19918;-79
2022/10/29 03:14:43;;;;;;;;;;;;;;;10.84;100.00;100992.09;4991108;28;19925;-78
2022/10/29 03:17:08;;;;;;;;;;;;;;;10.84;100.00;100983.75;4988060;28;20449;-78
2022/10/29 03:19:34;;;;;;;;;;;;;;;10.83;100.00;100990.53;4986342;28;19968;-78
2022/10/29 03:21:59;;;;;;;;;;;;;;;10.83;100.00;100986.97;4985054;28;19933;-78
2022/10/29 03:24:24;;;;;;;;;;;;;;;10.83;100.00;100986.97;4985946;28;20390;-78
2022/10/29 03:26:50;;;;;;;;;;;;;;;10.85;100.00;100985.34;4989085;28;19921;-78
2022/10/29 03:29:15;;;;;;;;;;;;;;;10.89;100.00;100983.31;4989113;28;20035;-78
2022/10/29 03:31:40;;;;;;;;;;;;;;;10.89;100.00;100983.31;4990771;28;19918;-78
2022/10/29 03:34:06;;;;;;;;;;;;;;;10.92;100.00;100978.94;4987860;28;20394;-79
2022/10/29 03:36:31;;;;;;;;;;;;;;;10.89;100.00;100974.97;4983271;28;20403;-79
2022/10/29 03:38:56;;;;;;;;;;;;;;;10.91;100.00;100980.13;4994016;28;19918;-78
2022/10/29 03:41:22;;;;;;;;;;;;;;;10.90;100.00;100984.88;4991817;28;19918;-78
2022/10/29 03:43:47;;;;;;;;;;;;;;;10.92;100.00;100984.47;4990574;28;20387;-78
2022/10/29 03:46:12;;;;;;;;;;;;;;;10.91;100.00;100980.13;4991804;28;19917;-79
2022/10/29 03:48:38;;;;;;;;;;;;;;;10.91;100.00;100986.47;4991759;28;19929;-79
2022/10/29 03:51:06;;;;;;;;;;;;;;;10.94;100.00;100976.50;4986670;28;20382;-78
2022/10/29 03:53:32;;;;;;;;;;;;;;;10.95;100.00;100973.31;4987639;28;20363;-77
2022/10/29 03:55:58;;;;;;;;;;;;;;;10.96;100.00;100980.44;4991557;28;20012;-77
2022/10/29 03:58:23;;;;;;;;;;;;;;;10.96;100.00;100976.88;4990169;28;19929;-77
2022/10/29 04:00:52;;;;;;;;;;;;;;;10.95;100.00;100967.78;4987651;28;19925;-78
2022/10/29 04:03:18;;;;;;;;;;;;;;;10.96;100.00;100972.09;4992752;28;19917;-77
2022/10/29 04:05:43;;;;;;;;;;;;;;;10.96;100.00;100983.19;4993745;28;19917;-77
2022/10/29 04:08:09;;;;;;;;;;;;;;;11.00;100.00;100975.63;4993866;28;19926;-77
2022/10/29 04:10:34;;;;;;;;;;;;;;;11.02;100.00;100976.00;4993286;28;19917;-77
2022/10/29 04:13:00;;;;;;;;;;;;;;;11.01;100.00;100977.19;4994087;28;19917;-77
2022/10/29 04:15:25;;;;;;;;;;;;;;;11.00;100.00;100978.38;4993298;28;19918;-78
2022/10/29 04:17:51;;;;;;;;;;;;;;;10.98;100.00;100983.59;4990304;28;20047;-78
2022/10/29 04:20:16;;;;;;;;;;;;;;;11.04;100.00;100981.91;4990254;28;20004;-78
2022/10/29 04:22:41;;;;;;;;;;;;;;;10.95;100.00;100961.44;4993234;28;20375;-78
2022/10/29 04:25:07;;;;;;;;;;;;;;;11.03;100.00;100968.47;4986401;28;20004;-78
2022/10/29 04:27:32;;;;;;;;;;;;;;;11.04;100.00;100967.25;4987877;28;19924;-78
2022/10/29 04:29:58;;;;;;;;;;;;;;;11.01;100.00;100970.84;4983585;28;19991;-79
2022/10/29 04:32:23;;;;;;;;;;;;;;;11.03;100.00;100968.47;4985770;28;19918;-78
2022/10/29 04:34:48;;;;;;;;;;;;;;;11.01;100.00;100974.41;4988892;28;19929;-78
2022/10/29 04:37:14;;;;;;;;;;;;;;;11.01;100.00;100977.19;4983427;28;19940;-78
2022/10/29 04:39:39;;;;;;;;;;;;;;;11.02;100.00;100973.22;4991789;28;19922;-78
2022/10/29 04:42:04;;;;;;;;;;;;;;;11.02;100.00;100978.78;4989949;28;19917;-78
2022/10/29 04:44:30;;;;;;;;;;;;;;;11.05;100.00;100980.72;4989100;28;20475;-78
2022/10/29 04:46:55;;;;;;;;;;;;;;;11.05;100.00;100988.25;4986731;28;19921;-78
2022/10/29 04:49:21;;;;;;;;;;;;;;;11.03;100.00;100974.00;4987289;28;19921;-78
2022/10/29 04:51:46;;;;;;;;;;;;;;;11.02;100.00;100986.31;4990280;28;20024;-78
2022/10/29 04:54:11;;;;;;;;;;;;;;;11.01;100.00;100988.28;4985472;28;19918;-79
2022/10/29 04:56:37;;;;;;;;;;;;;;;11.02;100.00;100989.88;4991745;28;19965;-79
2022/10/29 04:59:02;;;;;;;;;;;;;;;11.03;100.00;100985.91;4992875;28;20386;-78
2022/10/29 05:01:28;;;;;;;;;;;;;;;11.02;100.00;100987.09;4989816;28;20355;-78
2022/10/29 05:03:53;;;;;;;;;;;;;;;11.06;100.00;100990.63;4992180;28;19964;-78
2022/10/29 05:06:19;;;;;;;;;;;;;;;11.03;100.00;100985.91;4992608;28;19965;-78
2022/10/29 05:08:44;;;;;;;;;;;;;;;11.03;100.00;100999.00;4992939;28;20005;-78
2022/10/29 05:11:10;;;;;;;;;;;;;;;11.02;100.00;100994.63;4979369;28;20295;-78
2022/10/29 05:13:35;;;;;;;;;;;;;;;11.03;100.00;100985.91;4982029;28;19993;-78
2022/10/29 05:16:00;;;;;;;;;;;;;;;11.02;100.00;100981.56;4990527;28;19918;-78
2022/10/29 05:18:26;;;;;;;;;;;;;;;11.00;100.00;100986.72;4991935;28;19965;-78
2022/10/29 05:20:54;;;;;;;;;;;;;;;10.97;100.00;100976.44;4989627;28;19922;-78
2022/10/29 05:23:19;;;;;;;;;;;;;;;10.98;100.00;100986.38;4990067;28;20701;-78
2022/10/29 05:25:48;;;;;;;;;;;;;;;10.97;100.00;100987.56;4984795;28;19918;-78
2022/10/29 05:28:20;;;;;;;;;;;;;;;10.97;100.00;100982.00;4983482;28;19953;-78
2022/10/29 05:30:46;;;;;;;;;;;;;;;10.97;100.00;100987.56;4987924;28;19918;-78
2022/10/29 05:33:14;;;;;;;;;;;;;;;10.98;100.00;100989.13;4992564;28;19967;-78
2022/10/29 05:35:39;;;;;;;;;;;;;;;11.02;100.00;100987.09;4972224;28;19955;-78
2022/10/29 05:38:04;;;;;;;;;;;;;;;10.99;100.00;100990.72;4979157;28;20797;-78
2022/10/29 05:40:30;;;;;;;;;;;;;;;11.02;100.00;100973.22;4981083;28;19936;-78
2022/10/29 05:42:55;;;;;;;;;;;;;;;11.03;100.00;100983.13;4981382;28;19929;-78
2022/10/29 05:45:21;;;;;;;;;;;;;;;11.03;100.00;100972.03;4983965;28;19918;-78
2022/10/29 05:47:46;;;;;;;;;;;;;;;11.03;100.00;100976.78;4974144;28;19968;-78
2022/10/29 05:50:11;;;;;;;;;;;;;;;11.05;100.00;100977.16;4984861;28;19925;-78
2022/10/29 05:52:37;;;;;;;;;;;;;;;11.07;100.00;100985.84;4979940;28;20064;-78
2022/10/29 05:55:02;;;;;;;;;;;;;;;11.05;100.00;100960.47;4990377;28;20379;-78
2022/10/29 05:57:28;;;;;;;;;;;;;;;11.06;100.00;100965.63;4980686;28;19922;-78
2022/10/29 05:59:53;;;;;;;;;;;;;;;11.09;100.00;100973.13;4971458;28;19918;-78
2022/10/29 06:02:19;;;;;;;;;;;;;;;11.10;100.00;100977.47;4987109;28;19932;-78
2022/10/29 06:04:44;;;;;;;;;;;;;;;11.09;100.00;100984.22;4990220;28;19999;-78
2022/10/29 06:07:10;;;;;;;;;;;;;;;11.06;100.00;100985.06;4992234;28;20003;-78
2022/10/29 06:09:35;;;;;;;;;;;;;;;11.05;100.00;100983.47;4978223;28;19925;-78
2022/10/29 06:12:00;;;;;;;;;;;;;;;11.04;100.00;100984.69;4986060;28;20295;-78
2022/10/29 06:14:26;;;;;;;;;;;;;;;11.06;100.00;100995.38;4984004;28;19976;-78
2022/10/29 06:16:51;;;;;;;;;;;;;;;11.05;100.00;101004.91;4984866;28;19944;-78
2022/10/29 06:19:16;;;;;;;;;;;;;;;11.01;100.00;100998.63;4976869;28;20431;-78
2022/10/29 06:21:42;;;;;;;;;;;;;;;11.06;100.00;101012.03;4972503;28;20414;-78
2022/10/29 06:24:07;;;;;;;;;;;;;;;11.07;100.00;101008.84;4972382;28;19957;-78
2022/10/29 06:26:33;;;;;;;;;;;;;;;11.08;100.00;101015.19;4987273;28;19918;-78
2022/10/29 06:28:58;;;;;;;;;;;;;;;11.13;100.00;101009.94;4991249;28;19914;-78
2022/10/29 06:31:24;;;;;;;;;;;;;;;11.15;100.00;100999.22;4979469;28;20327;-78
2022/10/29 06:33:49;;;;;;;;;;;;;;;11.18;100.00;100995.59;4991593;28;19944;-78
2022/10/29 06:36:14;;;;;;;;;;;;;;;11.14;100.00;100992.09;4991930;28;19918;-78
2022/10/29 06:38:40;;;;;;;;;;;;;;;11.15;100.00;100990.91;4991727;28;20008;-78
2022/10/29 06:41:06;;;;;;;;;;;;;;;11.17;100.00;100982.91;4991599;28;19920;-78
2022/10/29 06:43:31;;;;;;;;;;;;;;;11.16;100.00;100981.34;4990307;28;19917;-78
2022/10/29 06:45:56;;;;;;;;;;;;;;;11.15;100.00;100982.56;4991643;28;19937;-78
2022/10/29 06:48:22;;;;;;;;;;;;;;;11.18;100.00;100976.16;4990598;28;20020;-78
2022/10/29 06:50:47;;;;;;;;;;;;;;;11.22;100.00;100985.22;4991787;28;20012;-78
2022/10/29 06:53:13;;;;;;;;;;;;;;;11.26;100.00;100984.38;4991557;28;19964;-78
2022/10/29 06:55:38;;;;;;;;;;;;;;;11.20;100.00;100982.06;4990458;28;19965;-78
2022/10/29 06:58:10;;;;;;;;;;;;;;;11.16;100.00;101000.78;4990969;28;20337;-78
2022/10/29 07:00:35;;;;;;;;;;;;;;;11.14;100.00;100997.66;4986011;28;20382;-78
2022/10/29 07:03:02;;;;;;;;;;;;;;;11.16;100.00;100989.66;4972037;28;19918;-77
2022/10/29 07:05:27;;;;;;;;;;;;;;;11.17;100.00;100991.25;4987290;28;19918;-78
2022/10/29 07:07:56;;;;;;;;;;;;;;;11.19;100.00;100997.19;4984434;28;19917;-78
2022/10/29 07:10:21;;;;;;;;;;;;;;;11.19;100.00;101005.53;4985195;28;20356;-78
2022/10/29 07:12:47;;;;;;;;;;;;;;;11.16;100.00;101000.78;4983128;28;19918;-78
2022/10/29 07:15:12;;;;;;;;;;;;;;;11.21;100.00;101007.84;4991521;28;19921;-78
2022/10/29 07:17:37;;;;;;;;;;;;;;;11.24;100.00;101002.25;4985680;28;19922;-78
2022/10/29 07:20:04;;;;;;;;;;;;;;;11.29;100.00;101000.22;4975637;28;19968;-78
2022/10/29 07:22:29;;;;;;;;;;;;;;;11.29;100.00;100997.44;4976088;28;19918;-78
2022/10/29 07:24:57;;;;;;;;;;;;;;;11.23;100.00;100995.16;4975269;28;20375;-77
2022/10/29 07:27:22;;;;;;;;;;;;;;;11.18;100.00;101009.50;4975217;28;19918;-77
2022/10/29 07:29:48;;;;;;;;;;;;;;;11.17;100.00;101002.34;4975505;28;19925;-78
2022/10/29 07:32:13;;;;;;;;;;;;;;;11.16;100.00;101000.03;4974296;28;19914;-78
2022/10/29 07:34:38;;;;;;;;;;;;;;;11.17;100.00;101002.34;4975708;28;19919;-78
2022/10/29 07:37:04;;;;;;;;;;;;;;;11.17;100.00;101007.91;4973757;28;19929;-77
2022/10/29 07:39:29;;;;;;;;;;;;;;;11.20;100.00;100995.97;4975772;28;19918;-77
2022/10/29 07:41:54;;;;;;;;;;;;;;;11.20;100.00;100998.75;4975208;28;19918;-77
2022/10/29 07:44:20;;;;;;;;;;;;;;;11.21;100.00;101007.84;4975357;28;19980;-77
2022/10/29 07:46:45;;;;;;;;;;;;;;;11.22;100.00;101015.78;4975492;28;19922;-77
2022/10/29 07:49:14;;;;;;;;;;;;;;;11.24;100.00;101023.72;4973858;28;19977;-77
2022/10/29 07:51:39;;;;;;;;;;;;;;;11.20;100.00;101023.72;4975198;28;20291;-77
2022/10/29 07:54:05;;;;;;;;;;;;;;;11.21;100.00;101036.41;4981098;28;19968;-77
2022/10/29 07:56:30;;;;;;;;;;;;;;;11.19;100.00;101044.41;4994683;28;20371;-77
2022/10/29 07:58:56;;;;;;;;;;;;;;;11.14;100.00;101046.84;4994008;28;19925;-77
2022/10/29 08:01:21;;;;;;;;;;;;;;;11.15;100.00;101043.66;4986277;28;19914;-77
2022/10/29 08:03:48;;;;;;;;;;;;;;;11.20;100.00;101040.41;4974888;28;20387;-77
2022/10/29 08:06:13;;;;;;;;;;;;;;;11.24;100.00;101038.34;4974915;28;19918;-77
2022/10/29 08:08:39;;;;;;;;;;;;;;;11.30;100.00;101038.69;4992626;28;19917;-77
2022/10/29 08:11:05;;;;;;;;;;;;;;;11.33;100.00;101048.16;4987640;28;19960;-77
2022/10/29 08:13:31;;;;;;;;;;;;;;;11.35;100.00;101045.78;4993838;28;19925;-78
2022/10/29 08:15:56;;;;;;;;;;;;;;;11.36;100.00;101047.34;4987156;28;19918;-77
2022/10/29 08:18:22;;;;;;;;;;;;;;;11.38;100.00;101044.94;4974799;28;19913;-77
2022/10/29 08:20:47;;;;;;;;;;;;;;;11.39;100.00;101052.06;4975160;28;20033;-77
2022/10/29 08:23:13;;;;;;;;;;;;;;;11.45;100.00;101056.72;4973898;28;20013;-77
2022/10/29 08:25:41;;;;;;;;;;;;;;;11.39;100.00;101040.94;4973749;28;19964;-77
2022/10/29 08:28:16;;;;;;;;;;;;;;;11.46;100.00;101049.97;4972681;28;19914;-78
2022/10/29 08:30:42;;;;;;;;;;;;;;;11.52;100.00;101055.84;4975331;28;19922;-78
2022/10/29 08:33:08;;;;;;;;;;;;;;;11.56;100.00;101037.13;4993803;28;20039;-78
2022/10/29 08:35:33;;;;;;;;;;;;;;;11.58;100.00;101051.38;4992923;28;20384;-78
2022/10/29 08:37:59;;;;;;;;;;;;;;;11.66;100.00;101045.31;4993826;28;19945;-78
2022/10/29 08:40:29;;;;;;;;;;;;;;;11.69;100.00;101049.22;4974700;28;19918;-78
2022/10/29 08:43:13;;;;;;;;;;;;;;;11.68;100.00;101042.13;4973801;28;20009;-78
2022/10/29 08:45:45;;;;;;;;;;;;;;;11.74;100.00;101040.44;4975282;28;19927;-78
2022/10/29 08:48:17;;;;;;;;;;;;;;;11.73;100.00;101036.09;4972696;28;19972;-78
2022/10/29 08:50:43;;;;;;;;;;;;;;;11.68;100.00;101037.34;4985600;28;19917;-78
2022/10/29 08:53:16;;;;;;;;;;;;;;;11.63;100.00;101034.25;4987613;28;20020;-78
2022/10/29 08:55:42;;;;;;;;;;;;;;;11.62;100.00;101032.66;4992557;28;19918;-77
2022/10/29 08:58:20;;;;;;;;;;;;;;;11.66;100.00;101036.19;4988809;28;19913;-78
2022/10/29 09:00:45;;;;;;;;;;;;;;;11.67;100.00;101029.44;4984887;28;19968;-78
2022/10/29 09:03:11;;;;;;;;;;;;;;;11.70;100.00;101020.22;4990930;28;19930;-78
2022/10/29 09:05:49;;;;;;;;;;;;;;;11.66;100.00;101028.63;4989962;28;19953;-78
2022/10/29 09:08:17;;;;;;;;;;;;;;;11.68;100.00;101026.22;4991488;28;19971;-78
2022/10/29 09:10:42;;;;;;;;;;;;;;;11.72;100.00;101025.41;4989963;28;19940;-78
2022/10/29 09:13:20;;;;;;;;;;;;;;;11.76;100.00;101020.59;4992232;28;20371;-79
2022/10/29 09:15:51;;;;;;;;;;;;;;;11.73;100.00;101022.19;4992134;28;20001;-78
2022/10/29 09:18:24;;;;;;;;;;;;;;;11.68;100.00;101004.00;4986928;28;20406;-79
2022/10/29 09:21:08;;;;;;;;;;;;;;;11.68;100.00;101011.53;4987322;28;20311;-78
2022/10/29 09:23:33;;;;;;;;;;;;;;;11.76;100.00;101009.47;4990955;28;19961;-78
2022/10/29 09:26:02;;;;;;;;;;;;;;;11.74;100.00;101007.09;4986225;28;19968;-79
2022/10/29 09:28:43;;;;;;;;;;;;;;;11.79;100.00;101009.41;4987545;28;19922;-78
2022/10/29 09:31:27;;;;;;;;;;;;;;;11.80;100.00;101010.19;4986119;28;19921;-78
2022/10/29 09:33:53;;;;;;;;;;;;;;;11.83;100.00;101009.34;4991109;28;19928;-78
2022/10/29 09:36:22;;;;;;;;;;;;;;;11.83;100.00;101014.91;4988053;28;20013;-78
2022/10/29 09:38:47;;;;;;;;;;;;;;;11.84;100.00;101011.72;4985160;28;19918;-78
2022/10/29 09:41:12;;;;;;;;;;;;;;;11.90;100.00;101004.44;4987496;28;20330;-78
2022/10/29 09:43:43;;;;;;;;;;;;;;;11.98;100.00;101005.91;4989987;28;19933;-78
2022/10/29 09:46:20;;;;;;;;;;;;;;;11.98;100.00;101008.69;4982423;28;19918;-78
2022/10/29 09:48:53;;;;;;;;;;;;;;;11.96;100.00;101016.69;4985354;28;19917;-78
2022/10/29 09:51:25;;;;;;;;;;;;;;;11.98;100.00;101010.66;4991812;28;19983;-78
2022/10/29 09:53:50;;;;;;;;;;;;;;;11.95;100.00;101001.19;4978584;28;19942;-78
2022/10/29 09:56:16;;;;;;;;;;;;;;;12.05;100.00;101008.56;4990219;28;20379;-79
2022/10/29 09:58:43;;;;;;;;;;;;;;;12.11;100.00;101009.66;4980664;28;19996;-79
2022/10/29 10:01:08;;;;;;;;;;;;;;;12.18;100.00;101005.16;4982548;28;19925;-78
2022/10/29 10:03:44;;;;;;;;;;;;;;;12.20;100.00;101011.88;4979223;28;20315;-78
2022/10/29 10:06:10;;;;;;;;;;;;;;;12.21;100.00;100991.22;4984325;28;20012;-79
2022/10/29 10:08:55;;;;;;;;;;;;;;;12.27;100.00;101005.41;4974632;28;20004;-78
2022/10/29 10:11:21;;;;;;;;;;;;;;;12.26;100.00;100993.50;4979823;28;19957;-78
2022/10/29 10:13:50;;;;;;;;;;;;;;;12.27;100.00;101006.19;4987270;28;19964;-79
2022/10/29 10:16:21;;;;;;;;;;;;;;;12.32;100.00;101004.91;4987776;28;19972;-80
2022/10/29 10:18:46;;;;;;;;;;;;;;;12.37;100.00;100993.31;4980595;28;19918;-78
2022/10/29 10:21:13;;;;;;;;;;;;;;;12.42;100.00;101001.13;4981686;28;19922;-78
2022/10/29 10:23:50;;;;;;;;;;;;;;;12.42;100.00;100995.56;4980715;28;19965;-79
2022/10/29 10:26:33;;;;;;;;;;;;;;;12.40;100.00;100992.44;4977349;28;20354;-79
2022/10/29 10:29:20;;;;;;;;;;;;;;;12.38;100.00;100986.50;4981938;28;20555;-79
2022/10/29 10:31:45;;;;;;;;;;;;;;;12.37;100.00;100988.53;4986953;28;19922;-78
2022/10/29 10:34:15;;;;;;;;;;;;;;;12.37;100.00;100977.41;4983747;28;19917;-78
2022/10/29 10:36:41;;;;;;;;;;;;;;;12.47;100.00;100964.47;4978685;28;20379;-79
2022/10/29 10:39:13;;;;;;;;;;;;;;;12.47;100.00;100964.47;4976832;28;19949;-79
2022/10/29 10:41:39;;;;;;;;;;;;;;;12.49;100.00;100970.41;4964334;28;19921;-78
2022/10/29 10:44:04;;;;;;;;;;;;;;;12.50;100.00;100963.63;4981173;28;20268;-78
2022/10/29 10:46:31;;;;;;;;;;;;;;;12.48;100.00;100968.84;4984459;28;19918;-78
2022/10/29 10:49:15;;;;;;;;;;;;;;;12.46;100.00;100969.25;4977123;28;20478;-78
2022/10/29 10:51:43;;;;;;;;;;;;;;;12.51;100.00;100967.97;4980557;28;19918;-79
2022/10/29 10:54:23;;;;;;;;;;;;;;;12.51;100.00;100971.53;4976966;28;19918;-78
2022/10/29 10:56:55;;;;;;;;;;;;;;;12.47;100.00;100962.47;4987572;28;19921;-79
2022/10/29 10:59:20;;;;;;;;;;;;;;;12.48;100.00;100949.34;4973501;28;19948;-79
2022/10/29 11:01:46;;;;;;;;;;;;;;;12.46;100.00;100952.56;4969627;28;19917;-78
2022/10/29 11:04:16;;;;;;;;;;;;;;;12.50;100.00;100950.50;4984699;28;20074;-79
2022/10/29 11:06:50;;;;;;;;;;;;;;;12.58;100.00;100948.34;4987361;28;19918;-78
2022/10/29 11:09:36;;;;;;;;;;;;;;;12.63;100.00;100939.50;4984026;28;19918;-78
2022/10/29 11:12:04;;;;;;;;;;;;;;;12.64;100.00;100932.72;4979360;28;19980;-79
2022/10/29 11:14:32;;;;;;;;;;;;;;;12.76;100.00;100932.06;4990473;28;19917;-78
2022/10/29 11:16:58;;;;;;;;;;;;;;;12.85;100.00;100934.28;4981536;28;19918;-79
2022/10/29 11:19:32;;;;;;;;;;;;;;;12.93;100.00;100946.84;4983948;28;20004;-79
2022/10/29 11:22:05;;;;;;;;;;;;;;;13.01;100.00;100937.88;4983660;28;19922;-79
2022/10/29 11:24:33;;;;;;;;;;;;;;;13.00;100.00;100941.88;4982321;28;20024;-79
2022/10/29 11:27:08;;;;;;;;;;;;;;;13.08;100.00;100934.94;4981546;28;20094;-78
2022/10/29 11:29:36;;;;;;;;;;;;;;;13.09;100.00;100927.38;4973670;28;19953;-79
2022/10/29 11:32:05;;;;;;;;;;;;;;;12.96;100.00;100913.31;4977672;28;20009;-78
2022/10/29 11:34:45;;;;;;;;;;;;;;;13.11;100.00;100922.16;4985422;28;19925;-79
2022/10/29 11:37:16;;;;;;;;;;;;;;;13.16;100.00;100926.44;4972132;28;19953;-79
2022/10/29 11:39:46;;;;;;;;;;;;;;;13.12;100.00;100929.31;4985889;28;19972;-79
2022/10/29 11:42:12;;;;;;;;;;;;;;;13.12;100.00;100925.75;4958528;28;19918;-78
2022/10/29 11:44:38;;;;;;;;;;;;;;;13.12;100.00;100926.53;4976073;28;20338;-78
2022/10/29 11:47:03;;;;;;;;;;;;;;;13.20;100.00;100907.63;4978352;28;19980;-78
2022/10/29 11:49:32;;;;;;;;;;;;;;;13.18;100.00;100919.25;4984412;28;19948;-79
2022/10/29 11:52:07;;;;;;;;;;;;;;;13.22;100.00;100910.78;4979730;28;19922;-78
2022/10/29 11:54:37;;;;;;;;;;;;;;;13.23;100.00;100921.47;4980754;28;20004;-78
2022/10/29 11:57:21;;;;;;;;;;;;;;;13.29;100.00;100908.63;4990428;28;19914;-79
2022/10/29 11:59:52;;;;;;;;;;;;;;;13.40;100.00;100900.00;4980964;28;19932;-78
2022/10/29 12:02:34;;;;;;;;;;;;;;;13.48;100.00;100895.81;4989222;28;20004;-79
2022/10/29 12:05:18;;;;;;;;;;;;;;;13.59;100.00;100893.53;4980248;28;20003;-79
2022/10/29 12:07:59;;;;;;;;;;;;;;;13.56;100.00;100899.97;4991285;28;19922;-79
2022/10/29 12:10:31;;;;;;;;;;;;;;;13.57;100.00;100907.13;4985267;28;20001;-79
2022/10/29 12:13:00;;;;;;;;;;;;;;;13.57;100.00;100895.97;4986989;28;19945;-79
2022/10/29 12:15:26;;;;;;;;;;;;;;;13.58;100.00;100897.56;4991233;28;20342;-79
2022/10/29 12:18:09;;;;;;;;;;;;;;;13.60;100.00;100889.53;4989401;28;19918;-79
2022/10/29 12:20:49;;;;;;;;;;;;;;;13.56;100.00;100888.84;4992596;28;19917;-78
2022/10/29 12:23:23;;;;;;;;;;;;;;;13.65;100.00;100900.16;4973253;28;19925;-78
2022/10/29 12:25:49;;;;;;;;;;;;;;;13.74;100.00;100894.75;4991470;28;19999;-78
2022/10/29 12:28:17;;;;;;;;;;;;;;;13.84;100.00;100890.88;4986835;28;19964;-78
2022/10/29 12:30:46;;;;;;;;;;;;;;;13.94;100.00;100892.63;4985635;28;20380;-78
2022/10/29 12:33:17;;;;;;;;;;;;;;;13.94;100.00;100898.19;4968889;28;19918;-79
2022/10/29 12:35:42;;;;;;;;;;;;;;;13.93;100.00;100896.63;4983182;28;19921;-78